Aérodrome :
LOGIN :

S'inscrire | Disclaimer

   EN    FR    IT 

 










Légende :    VFR   VFR Marginal   IFR   IFR Intensif   IFR Très Intensif
Visi : 
Plafond : 
>= 8 km
>= 3000ft
5 à 8 km
1000 à 3000 ft
1500m à 5 km
500 à 1000 ft
800 à 1500m
200 à 500 ft
< 800m
< 200 ft
Symboles :   Orages  Brouillard  Fortes neiges  Fortes précipitations  Vent > 20 kt
SIGMETs :   Divers  Orages  Givrage  Turbulence  Onde Orograph.  Cendres Volcan.







- Altitude de l'aérodrome : 74 ft
- Code IATA : LRH
- Voir les cartes d'approche


LFBH - La Rochelle Ile de Ré

DERNIER METAR :
  • 181400Z AUTO 21007KT 160V260 CAVOK 26/17 Q1009 NOSIG

METARs EXPIRÉS :
  • 181330Z AUTO 21008KT 190V250 CAVOK 25/17 Q1009 NOSIG
  • 181300Z AUTO 22009KT 180V260 CAVOK 25/16 Q1009 NOSIG
  • 181230Z AUTO 22009KT 180V260 CAVOK 24/16 Q1009 NOSIG
  • 181200Z AUTO 21011KT 180V250 CAVOK 24/17 Q1010 NOSIG
  • 181130Z AUTO 24011KT CAVOK 24/16 Q1010 NOSIG

TAF TAF LFBH
Valide du 18 à 12h jusqu'au 19 à 12h UTC


181100Z 1812/1912 24010KT CAVOK
BECMG 1817/1819 32010KT
PROB30
TEMPO 1900/1903 -SHRA BKN070TCU
BECMG 1904/1906 25010KT BKN010
BECMG 1908/1910 BKN025
ATIS : +33 5 46 00 13 92
Pas de NOTAMs connus pour ce terrain.



MET'MAP, la Météo Aéronautique d'un coup d'oeil ! - Copyright ORBIFLY Décembre 2007 - Disclaimer

ORBIFLY MET'MAP TEAM :

Programmation & Développement : Alexandra Zaïnal
Conception & Développement : Baudouin d'Aumeries
Co-Programmation & Développement : Marc-Olivier Méhu
Soutien technique & logistique : Manuel Goepfert

Contact : metmap@orbifly.com




SOURCES & CREDITS :

   NOAA